sensor_id;sensor_type;location;lat;lon;timestamp;pressure;altitude;pressure_sealevel;temperature;humidity
10921;BME280;5513;50.580;8.818;2023-03-22T00:00:38;98887.09;;;8.68;100.00
10921;BME280;5513;50.580;8.818;2023-03-22T00:03:08;98884.66;;;8.65;100.00
10921;BME280;5513;50.580;8.818;2023-03-22T00:05:38;98895.41;;;8.62;100.00
10921;BME280;5513;50.580;8.818;2023-03-22T00:08:07;98886.56;;;8.63;100.00
10921;BME280;5513;50.580;8.818;2023-03-22T00:10:39;98882.78;;;8.67;100.00
10921;BME280;5513;50.580;8.818;2023-03-22T00:13:10;98880.88;;;8.54;100.00
10921;BME280;5513;50.580;8.818;2023-03-22T00:15:38;98884.00;;;8.61;100.00
10921;BME280;5513;50.580;8.818;2023-03-22T00:18:06;98886.81;;;8.58;100.00
10921;BME280;5513;50.580;8.818;2023-03-22T00:20:35;98883.50;;;8.54;100.00
10921;BME280;5513;50.580;8.818;2023-03-22T00:23:05;98885.13;;;8.57;100.00
10921;BME280;5513;50.580;8.818;2023-03-22T00:25:34;98876.06;;;8.47;100.00
10921;BME280;5513;50.580;8.818;2023-03-22T00:28:04;98870.63;;;8.50;100.00
10921;BME280;5513;50.580;8.818;2023-03-22T00:30:33;98876.16;;;8.45;100.00
10921;BME280;5513;50.580;8.818;2023-03-22T00:33:04;98875.88;;;8.50;100.00
10921;BME280;5513;50.580;8.818;2023-03-22T00:35:32;98871.81;;;8.44;100.00
10921;BME280;5513;50.580;8.818;2023-03-22T00:38:00;98862.59;;;8.51;100.00
10921;BME280;5513;50.580;8.818;2023-03-22T00:40:41;98860.97;;;8.49;100.00
10921;BME280;5513;50.580;8.818;2023-03-22T00:43:11;98849.47;;;8.36;100.00
10921;BME280;5513;50.580;8.818;2023-03-22T00:45:41;98852.00;;;8.37;100.00
10921;BME280;5513;50.580;8.818;2023-03-22T00:48:10;98848.06;;;8.44;100.00
10921;BME280;5513;50.580;8.818;2023-03-22T00:50:39;98846.63;;;8.39;100.00
10921;BME280;5513;50.580;8.818;2023-03-22T00:53:08;98848.19;;;8.27;100.00
10921;BME280;5513;50.580;8.818;2023-03-22T00:55:37;98843.13;;;8.38;100.00
10921;BME280;5513;50.580;8.818;2023-03-22T00:58:06;98836.44;;;8.32;100.00
10921;BME280;5513;50.580;8.818;2023-03-22T01:00:35;98846.13;;;8.32;100.00
10921;BME280;5513;50.580;8.818;2023-03-22T01:03:04;98847.69;;;8.50;100.00
10921;BME280;5513;50.580;8.818;2023-03-22T01:05:33;98843.75;;;8.27;100.00
10921;BME280;5513;50.580;8.818;2023-03-22T01:08:03;98848.50;;;8.37;100.00
10921;BME280;5513;50.580;8.818;2023-03-22T01:10:34;98840.44;;;8.40;100.00
10921;BME280;5513;50.580;8.818;2023-03-22T01:13:03;98841.47;;;8.51;100.00
10921;BME280;5513;50.580;8.818;2023-03-22T01:15:32;98843.25;;;8.37;100.00
10921;BME280;5513;50.580;8.818;2023-03-22T01:18:03;98845.72;;;8.40;100.00
10921;BME280;5513;50.580;8.818;2023-03-22T01:20:33;98840.16;;;8.44;100.00
10921;BME280;5513;50.580;8.818;2023-03-22T01:23:02;98840.72;;;8.49;100.00
10921;BME280;5513;50.580;8.818;2023-03-22T01:25:30;98845.72;;;8.40;100.00
10921;BME280;5513;50.580;8.818;2023-03-22T01:27:59;98839.19;;;8.45;100.00
10921;BME280;5513;50.580;8.818;2023-03-22T01:30:28;98837.97;;;8.37;100.00
10921;BME280;5513;50.580;8.818;2023-03-22T01:32:57;98836.00;;;8.40;100.00
10921;BME280;5513;50.580;8.818;2023-03-22T01:35:27;98835.69;;;8.30;100.00
10921;BME280;5513;50.580;8.818;2023-03-22T01:37:56;98829.31;;;8.19;100.00
10921;BME280;5513;50.580;8.818;2023-03-22T01:40:26;98830.41;;;8.30;100.00
10921;BME280;5513;50.580;8.818;2023-03-22T01:42:55;98828.00;;;8.42;100.00
10921;BME280;5513;50.580;8.818;2023-03-22T01:45:42;98830.41;;;8.30;100.00
10921;BME280;5513;50.580;8.818;2023-03-22T01:48:20;98824.09;;;8.33;100.00
10921;BME280;5513;50.580;8.818;2023-03-22T01:51:08;98817.66;;;8.23;100.00
10921;BME280;5513;50.580;8.818;2023-03-22T01:53:40;98825.38;;;8.26;100.00
10921;BME280;5513;50.580;8.818;2023-03-22T01:56:10;98819.56;;;8.21;100.00
10921;BME280;5513;50.580;8.818;2023-03-22T01:58:41;98816.97;;;8.05;100.00
10921;BME280;5513;50.580;8.818;2023-03-22T02:01:10;98815.38;;;8.17;100.00
10921;BME280;5513;50.580;8.818;2023-03-22T02:03:45;98814.53;;;8.16;100.00
10921;BME280;5513;50.580;8.818;2023-03-22T02:06:17;98804.19;;;8.27;100.00
10921;BME280;5513;50.580;8.818;2023-03-22T02:08:45;98808.69;;;8.11;100.00
10921;BME280;5513;50.580;8.818;2023-03-22T02:11:16;98800.84;;;8.10;100.00
10921;BME280;5513;50.580;8.818;2023-03-22T02:14:04;98800.59;;;8.14;100.00
10921;BME280;5513;50.580;8.818;2023-03-22T02:16:44;98798.50;;;8.05;100.00
10921;BME280;5513;50.580;8.818;2023-03-22T02:19:40;98793.69;;;7.97;100.00
10921;BME280;5513;50.580;8.818;2023-03-22T02:22:52;98786.50;;;7.99;100.00
10921;BME280;5513;50.580;8.818;2023-03-22T02:28:39;98786.44;;;8.01;100.00
10921;BME280;5513;50.580;8.818;2023-03-22T02:31:40;98784.28;;;8.08;100.00
10921;BME280;5513;50.580;8.818;2023-03-22T02:34:45;98781.72;;;7.92;100.00
10921;BME280;5513;50.580;8.818;2023-03-22T02:40:29;98783.63;;;8.04;100.00
10921;BME280;5513;50.580;8.818;2023-03-22T02:43:06;98788.22;;;8.00;100.00
10921;BME280;5513;50.580;8.818;2023-03-22T02:45:44;98786.34;;;8.02;100.00
10921;BME280;5513;50.580;8.818;2023-03-22T02:48:16;98783.75;;;7.87;100.00
10921;BME280;5513;50.580;8.818;2023-03-22T02:50:51;98782.31;;;7.81;100.00
10921;BME280;5513;50.580;8.818;2023-03-22T02:53:23;98782.06;;;7.86;100.00
10921;BME280;5513;50.580;8.818;2023-03-22T02:55:58;98786.94;;;7.78;100.00
10921;BME280;5513;50.580;8.818;2023-03-22T02:58:29;98782.91;;;7.86;100.00
10921;BME280;5513;50.580;8.818;2023-03-22T03:01:06;98790.91;;;7.85;100.00
10921;BME280;5513;50.580;8.818;2023-03-22T03:03:37;98791.41;;;7.91;100.00
10921;BME280;5513;50.580;8.818;2023-03-22T03:06:09;98787.03;;;7.76;100.00
10921;BME280;5513;50.580;8.818;2023-03-22T03:08:41;98778.84;;;7.81;100.00
10921;BME280;5513;50.580;8.818;2023-03-22T03:11:12;98774.59;;;7.78;100.00
10921;BME280;5513;50.580;8.818;2023-03-22T03:13:40;98775.66;;;7.75;100.00
10921;BME280;5513;50.580;8.818;2023-03-22T03:16:11;98771.03;;;7.79;100.00
10921;BME280;5513;50.580;8.818;2023-03-22T03:18:46;98766.88;;;7.75;100.00
10921;BME280;5513;50.580;8.818;2023-03-22T03:21:26;98756.44;;;7.73;100.00
10921;BME280;5513;50.580;8.818;2023-03-22T03:24:09;98759.44;;;7.67;100.00
10921;BME280;5513;50.580;8.818;2023-03-22T03:26:50;98758.88;;;7.77;100.00
10921;BME280;5513;50.580;8.818;2023-03-22T03:29:28;98760.81;;;7.59;100.00
10921;BME280;5513;50.580;8.818;2023-03-22T03:32:05;98758.94;;;7.61;100.00
10921;BME280;5513;50.580;8.818;2023-03-22T03:34:40;98760.94;;;7.71;100.00
10921;BME280;5513;50.580;8.818;2023-03-22T03:37:18;98759.13;;;7.58;100.00
10921;BME280;5513;50.580;8.818;2023-03-22T03:39:54;98762.34;;;7.63;100.00
10921;BME280;5513;50.580;8.818;2023-03-22T03:42:27;98759.31;;;7.55;100.00
10921;BME280;5513;50.580;8.818;2023-03-22T03:44:57;98757.13;;;7.61;100.00
10921;BME280;5513;50.580;8.818;2023-03-22T03:47:27;98761.41;;;7.64;100.00
10921;BME280;5513;50.580;8.818;2023-03-22T03:49:56;98761.78;;;7.72;100.00
10921;BME280;5513;50.580;8.818;2023-03-22T03:52:24;98751.16;;;7.73;100.00
10921;BME280;5513;50.580;8.818;2023-03-22T03:54:53;98749.09;;;7.79;100.00
10921;BME280;5513;50.580;8.818;2023-03-22T03:57:21;98752.75;;;7.76;100.00
10921;BME280;5513;50.580;8.818;2023-03-22T03:59:51;98757.31;;;7.58;100.00
10921;BME280;5513;50.580;8.818;2023-03-22T04:02:20;98750.84;;;7.64;100.00
10921;BME280;5513;50.580;8.818;2023-03-22T04:04:48;98751.91;;;7.75;100.00
10921;BME280;5513;50.580;8.818;2023-03-22T04:07:17;98761.13;;;7.68;100.00
10921;BME280;5513;50.580;8.818;2023-03-22T04:09:45;98752.56;;;7.79;100.00
10921;BME280;5513;50.580;8.818;2023-03-22T04:12:14;98745.50;;;7.65;100.00
10921;BME280;5513;50.580;8.818;2023-03-22T04:14:42;98746.34;;;7.66;100.00
10921;BME280;5513;50.580;8.818;2023-03-22T04:17:12;98748.56;;;7.58;100.00
10921;BME280;5513;50.580;8.818;2023-03-22T04:19:41;98744.25;;;7.71;100.00
10921;BME280;5513;50.580;8.818;2023-03-22T04:22:10;98740.53;;;7.75;100.00
10921;BME280;5513;50.580;8.818;2023-03-22T04:24:40;98741.16;;;7.64;100.00
10921;BME280;5513;50.580;8.818;2023-03-22T04:27:08;98729.00;;;7.62;100.00
10921;BME280;5513;50.580;8.818;2023-03-22T04:29:37;98735.59;;;7.55;100.00
10921;BME280;5513;50.580;8.818;2023-03-22T04:32:06;98736.84;;;7.63;100.00
10921;BME280;5513;50.580;8.818;2023-03-22T04:34:36;98742.41;;;7.73;100.00
10921;BME280;5513;50.580;8.818;2023-03-22T04:37:06;98735.50;;;7.56;100.00
10921;BME280;5513;50.580;8.818;2023-03-22T04:39:34;98731.72;;;7.60;100.00
10921;BME280;5513;50.580;8.818;2023-03-22T04:42:02;98729.59;;;7.67;100.00
10921;BME280;5513;50.580;8.818;2023-03-22T04:44:31;98733.06;;;7.67;100.00
10921;BME280;5513;50.580;8.818;2023-03-22T04:46:59;98726.28;;;7.63;100.00
10921;BME280;5513;50.580;8.818;2023-03-22T04:49:28;98724.31;;;7.67;100.00
10921;BME280;5513;50.580;8.818;2023-03-22T04:51:58;98724.66;;;7.61;100.00
10921;BME280;5513;50.580;8.818;2023-03-22T04:54:28;98722.97;;;7.60;100.00
10921;BME280;5513;50.580;8.818;2023-03-22T04:56:58;98725.19;;;7.52;100.00
10921;BME280;5513;50.580;8.818;2023-03-22T04:59:28;98718.63;;;7.44;100.00
10921;BME280;5513;50.580;8.818;2023-03-22T05:01:56;98722.34;;;7.40;100.00
10921;BME280;5513;50.580;8.818;2023-03-22T05:04:25;98726.53;;;7.44;100.00
10921;BME280;5513;50.580;8.818;2023-03-22T05:06:54;98734.59;;;7.41;100.00
10921;BME280;5513;50.580;8.818;2023-03-22T05:09:24;98729.31;;;7.41;100.00
10921;BME280;5513;50.580;8.818;2023-03-22T05:11:53;98722.81;;;7.63;100.00
10921;BME280;5513;50.580;8.818;2023-03-22T05:14:22;98730.00;;;7.45;100.00
10921;BME280;5513;50.580;8.818;2023-03-22T05:16:51;98722.00;;;7.46;100.00
10921;BME280;5513;50.580;8.818;2023-03-22T05:19:19;98724.53;;;7.48;100.00
10921;BME280;5513;50.580;8.818;2023-03-22T05:21:50;98727.28;;;7.46;100.00
10921;BME280;5513;50.580;8.818;2023-03-22T05:24:29;98724.97;;;7.40;100.00
10921;BME280;5513;50.580;8.818;2023-03-22T05:26:58;98727.09;;;7.50;100.00
10921;BME280;5513;50.580;8.818;2023-03-22T05:29:27;98720.63;;;7.55;100.00
10921;BME280;5513;50.580;8.818;2023-03-22T05:32:03;98729.28;;;7.57;100.00
10921;BME280;5513;50.580;8.818;2023-03-22T05:34:31;98725.66;;;7.44;100.00
10921;BME280;5513;50.580;8.818;2023-03-22T05:37:02;98727.81;;;7.37;100.00
10921;BME280;5513;50.580;8.818;2023-03-22T05:39:34;98728.66;;;7.38;100.00
10921;BME280;5513;50.580;8.818;2023-03-22T05:42:02;98724.88;;;7.42;100.00
10921;BME280;5513;50.580;8.818;2023-03-22T05:44:31;98735.09;;;7.32;100.00
10921;BME280;5513;50.580;8.818;2023-03-22T05:46:59;98725.16;;;7.37;100.00
10921;BME280;5513;50.580;8.818;2023-03-22T05:49:28;98725.34;;;7.34;100.00
10921;BME280;5513;50.580;8.818;2023-03-22T05:51:57;98728.84;;;7.35;100.00
10921;BME280;5513;50.580;8.818;2023-03-22T05:54:26;98721.94;;;7.32;100.00
10921;BME280;5513;50.580;8.818;2023-03-22T05:56:55;98730.16;;;7.42;100.00
10921;BME280;5513;50.580;8.818;2023-03-22T05:59:24;98715.06;;;7.30;100.00
10921;BME280;5513;50.580;8.818;2023-03-22T06:01:52;98724.41;;;7.35;100.00
10921;BME280;5513;50.580;8.818;2023-03-22T06:04:21;98718.13;;;7.38;100.00
10921;BME280;5513;50.580;8.818;2023-03-22T06:06:49;98719.91;;;7.37;100.00
10921;BME280;5513;50.580;8.818;2023-03-22T06:09:20;98713.59;;;7.40;100.00
10921;BME280;5513;50.580;8.818;2023-03-22T06:11:48;98716.34;;;7.23;100.00
10921;BME280;5513;50.580;8.818;2023-03-22T06:14:18;98715.66;;;7.35;100.00
10921;BME280;5513;50.580;8.818;2023-03-22T06:16:46;98709.91;;;7.28;100.00
10921;BME280;5513;50.580;8.818;2023-03-22T06:19:14;98715.03;;;7.45;100.00
10921;BME280;5513;50.580;8.818;2023-03-22T06:21:44;98707.34;;;7.27;100.00
10921;BME280;5513;50.580;8.818;2023-03-22T06:24:14;98724.03;;;7.41;100.00
10921;BME280;5513;50.580;8.818;2023-03-22T06:26:43;98722.94;;;7.45;100.00
10921;BME280;5513;50.580;8.818;2023-03-22T06:29:12;98726.16;;;7.51;100.00
10921;BME280;5513;50.580;8.818;2023-03-22T06:31:41;98718.94;;;7.54;100.00
10921;BME280;5513;50.580;8.818;2023-03-22T06:34:09;98726.75;;;7.56;100.00
10921;BME280;5513;50.580;8.818;2023-03-22T06:36:38;98731.56;;;7.63;100.00
10921;BME280;5513;50.580;8.818;2023-03-22T06:39:08;98732.63;;;7.75;100.00
10921;BME280;5513;50.580;8.818;2023-03-22T06:41:36;98734.31;;;7.76;100.00
10921;BME280;5513;50.580;8.818;2023-03-22T06:44:04;98737.41;;;7.68;100.00
10921;BME280;5513;50.580;8.818;2023-03-22T06:46:33;98734.72;;;7.84;100.00
10921;BME280;5513;50.580;8.818;2023-03-22T06:49:02;98731.97;;;7.86;100.00
10921;BME280;5513;50.580;8.818;2023-03-22T06:51:31;98739.63;;;8.04;100.00
10921;BME280;5513;50.580;8.818;2023-03-22T06:53:59;98738.03;;;8.02;100.00
10921;BME280;5513;50.580;8.818;2023-03-22T06:56:28;98739.72;;;8.17;100.00
10921;BME280;5513;50.580;8.818;2023-03-22T06:58:56;98739.56;;;8.20;100.00
10921;BME280;5513;50.580;8.818;2023-03-22T07:01:25;98740.75;;;8.29;100.00
10921;BME280;5513;50.580;8.818;2023-03-22T07:03:53;98740.97;;;8.26;100.00
10921;BME280;5513;50.580;8.818;2023-03-22T07:06:24;98741.34;;;8.34;100.00
10921;BME280;5513;50.580;8.818;2023-03-22T07:08:53;98736.00;;;8.50;100.00
10921;BME280;5513;50.580;8.818;2023-03-22T07:11:23;98737.13;;;8.46;100.00
10921;BME280;5513;50.580;8.818;2023-03-22T07:13:53;98736.06;;;8.48;100.00
10921;BME280;5513;50.580;8.818;2023-03-22T07:16:21;98737.88;;;8.62;100.00
10921;BME280;5513;50.580;8.818;2023-03-22T07:18:50;98740.09;;;8.68;100.00
10921;BME280;5513;50.580;8.818;2023-03-22T07:21:19;98748.28;;;8.78;100.00
10921;BME280;5513;50.580;8.818;2023-03-22T07:23:49;98734.88;;;8.95;100.00
10921;BME280;5513;50.580;8.818;2023-03-22T07:26:18;98724.41;;;8.94;100.00
10921;BME280;5513;50.580;8.818;2023-03-22T07:28:46;98726.66;;;9.00;100.00
10921;BME280;5513;50.580;8.818;2023-03-22T07:31:15;98721.31;;;9.14;100.00
10921;BME280;5513;50.580;8.818;2023-03-22T07:33:44;98718.41;;;9.18;100.00
10921;BME280;5513;50.580;8.818;2023-03-22T07:36:14;98724.94;;;9.26;100.00
10921;BME280;5513;50.580;8.818;2023-03-22T07:38:43;98723.09;;;9.40;100.00
10921;BME280;5513;50.580;8.818;2023-03-22T07:41:12;98725.00;;;9.38;100.00
10921;BME280;5513;50.580;8.818;2023-03-22T07:43:41;98717.31;;;9.48;100.00
10921;BME280;5513;50.580;8.818;2023-03-22T07:46:22;98714.47;;;9.64;100.00
10921;BME280;5513;50.580;8.818;2023-03-22T07:48:50;98705.19;;;9.71;100.00
10921;BME280;5513;50.580;8.818;2023-03-22T07:51:18;98701.84;;;9.94;100.00
10921;BME280;5513;50.580;8.818;2023-03-22T07:53:47;98690.19;;;9.97;100.00
10921;BME280;5513;50.580;8.818;2023-03-22T07:56:17;98683.06;;;10.10;100.00
10921;BME280;5513;50.580;8.818;2023-03-22T07:58:45;98671.22;;;10.16;100.00
10921;BME280;5513;50.580;8.818;2023-03-22T08:01:13;98675.34;;;10.32;100.00
10921;BME280;5513;50.580;8.818;2023-03-22T08:03:42;98671.00;;;10.44;100.00
10921;BME280;5513;50.580;8.818;2023-03-22T08:06:12;98670.84;;;10.71;100.00
10921;BME280;5513;50.580;8.818;2023-03-22T08:08:44;98660.59;;;10.91;100.00
10921;BME280;5513;50.580;8.818;2023-03-22T08:11:13;98671.06;;;11.16;100.00
10921;BME280;5513;50.580;8.818;2023-03-22T08:13:43;98659.50;;;10.93;100.00
10921;BME280;5513;50.580;8.818;2023-03-22T08:16:12;98659.56;;;11.04;100.00
10921;BME280;5513;50.580;8.818;2023-03-22T08:18:41;98651.25;;;11.09;100.00
10921;BME280;5513;50.580;8.818;2023-03-22T08:21:11;98652.50;;;11.16;100.00
10921;BME280;5513;50.580;8.818;2023-03-22T08:23:43;98652.19;;;11.21;100.00
10921;BME280;5513;50.580;8.818;2023-03-22T08:26:14;98645.09;;;11.32;100.00
10921;BME280;5513;50.580;8.818;2023-03-22T08:28:45;98630.66;;;11.47;100.00
10921;BME280;5513;50.580;8.818;2023-03-22T08:31:15;98617.66;;;11.44;100.00
10921;BME280;5513;50.580;8.818;2023-03-22T08:33:45;98612.50;;;11.76;100.00
10921;BME280;5513;50.580;8.818;2023-03-22T08:36:16;98612.06;;;11.94;100.00
10921;BME280;5513;50.580;8.818;2023-03-22T08:38:45;98612.94;;;12.17;100.00
10921;BME280;5513;50.580;8.818;2023-03-22T08:41:14;98602.66;;;12.23;100.00
10921;BME280;5513;50.580;8.818;2023-03-22T08:43:42;98587.81;;;12.21;100.00
10921;BME280;5513;50.580;8.818;2023-03-22T08:46:12;98590.59;;;12.30;100.00
10921;BME280;5513;50.580;8.818;2023-03-22T08:48:41;98598.06;;;12.14;100.00
10921;BME280;5513;50.580;8.818;2023-03-22T08:51:16;98583.13;;;12.02;100.00
10921;BME280;5513;50.580;8.818;2023-03-22T08:53:47;98590.97;;;12.03;100.00
10921;BME280;5513;50.580;8.818;2023-03-22T08:56:17;98588.91;;;11.85;100.00
10921;BME280;5513;50.580;8.818;2023-03-22T08:58:46;98579.03;;;11.98;100.00
10921;BME280;5513;50.580;8.818;2023-03-22T09:01:16;98570.34;;;11.85;100.00
10921;BME280;5513;50.580;8.818;2023-03-22T09:03:46;98570.09;;;12.10;100.00
10921;BME280;5513;50.580;8.818;2023-03-22T09:06:16;98567.78;;;12.28;100.00
10921;BME280;5513;50.580;8.818;2023-03-22T09:08:45;98563.88;;;12.43;100.00
10921;BME280;5513;50.580;8.818;2023-03-22T09:11:18;98563.69;;;12.67;100.00
10921;BME280;5513;50.580;8.818;2023-03-22T09:13:47;98554.44;;;12.82;100.00
10921;BME280;5513;50.580;8.818;2023-03-22T09:16:17;98556.53;;;12.79;100.00
10921;BME280;5513;50.580;8.818;2023-03-22T09:18:46;98549.09;;;12.61;100.00
10921;BME280;5513;50.580;8.818;2023-03-22T09:21:15;98550.16;;;12.70;100.00
10921;BME280;5513;50.580;8.818;2023-03-22T09:23:43;98548.47;;;12.37;100.00
10921;BME280;5513;50.580;8.818;2023-03-22T09:26:13;98560.59;;;12.51;100.00
10921;BME280;5513;50.580;8.818;2023-03-22T09:28:42;98534.88;;;12.51;100.00
10921;BME280;5513;50.580;8.818;2023-03-22T09:31:12;98530.75;;;12.58;100.00
10921;BME280;5513;50.580;8.818;2023-03-22T09:33:42;98533.56;;;12.78;100.00
10921;BME280;5513;50.580;8.818;2023-03-22T09:36:13;98526.09;;;12.72;100.00
10921;BME280;5513;50.580;8.818;2023-03-22T09:38:42;98530.00;;;12.68;100.00
10921;BME280;5513;50.580;8.818;2023-03-22T09:41:13;98526.13;;;12.93;100.00
10921;BME280;5513;50.580;8.818;2023-03-22T09:43:47;98526.78;;;12.85;100.00
10921;BME280;5513;50.580;8.818;2023-03-22T09:46:22;98516.22;;;12.95;100.00
10921;BME280;5513;50.580;8.818;2023-03-22T09:48:56;98520.19;;;13.21;100.00
10921;BME280;5513;50.580;8.818;2023-03-22T09:51:33;98506.91;;;13.42;100.00
10921;BME280;5513;50.580;8.818;2023-03-22T09:54:11;98520.50;;;13.49;100.00
10921;BME280;5513;50.580;8.818;2023-03-22T09:56:43;98520.94;;;13.23;100.00
10921;BME280;5513;50.580;8.818;2023-03-22T09:59:21;98521.47;;;13.06;100.00
10921;BME280;5513;50.580;8.818;2023-03-22T10:01:57;98509.59;;;13.10;100.00
10921;BME280;5513;50.580;8.818;2023-03-22T10:04:57;98507.75;;;13.22;100.00
10921;BME280;5513;50.580;8.818;2023-03-22T10:07:33;98506.44;;;13.16;100.00
10921;BME280;5513;50.580;8.818;2023-03-22T10:10:11;98512.41;;;13.08;100.00
10921;BME280;5513;50.580;8.818;2023-03-22T10:12:48;98498.19;;;12.98;100.00
10921;BME280;5513;50.580;8.818;2023-03-22T10:15:27;98494.25;;;13.13;100.00
10921;BME280;5513;50.580;8.818;2023-03-22T10:17:58;98501.38;;;13.13;100.00
10921;BME280;5513;50.580;8.818;2023-03-22T10:20:35;98521.16;;;13.41;100.00
10921;BME280;5513;50.580;8.818;2023-03-22T10:23:11;98505.41;;;13.28;100.00
10921;BME280;5513;50.580;8.818;2023-03-22T10:25:43;98512.56;;;13.28;100.00
10921;BME280;5513;50.580;8.818;2023-03-22T10:28:15;98510.91;;;13.15;100.00
10921;BME280;5513;50.580;8.818;2023-03-22T10:30:45;98520.66;;;13.26;100.00
10921;BME280;5513;50.580;8.818;2023-03-22T10:33:24;98519.72;;;13.16;100.00
10921;BME280;5513;50.580;8.818;2023-03-22T10:35:59;98504.41;;;13.08;100.00
10921;BME280;5513;50.580;8.818;2023-03-22T10:38:29;98520.84;;;13.13;100.00
10921;BME280;5513;50.580;8.818;2023-03-22T10:40:59;98517.16;;;13.26;100.00
10921;BME280;5513;50.580;8.818;2023-03-22T10:43:31;98524.72;;;13.30;100.00
10921;BME280;5513;50.580;8.818;2023-03-22T10:46:02;98517.72;;;13.29;100.00
10921;BME280;5513;50.580;8.818;2023-03-22T10:48:35;98521.22;;;13.30;100.00
10921;BME280;5513;50.580;8.818;2023-03-22T10:51:17;98526.53;;;13.51;100.00
10921;BME280;5513;50.580;8.818;2023-03-22T10:53:49;98527.06;;;13.44;100.00
10921;BME280;5513;50.580;8.818;2023-03-22T10:56:21;98525.25;;;13.45;100.00
10921;BME280;5513;50.580;8.818;2023-03-22T10:58:50;98523.44;;;13.45;100.00
10921;BME280;5513;50.580;8.818;2023-03-22T11:01:25;98523.75;;;13.31;100.00
10921;BME280;5513;50.580;8.818;2023-03-22T11:03:57;98524.72;;;13.30;100.00
10921;BME280;5513;50.580;8.818;2023-03-22T11:06:32;98534.38;;;13.10;100.00
10921;BME280;5513;50.580;8.818;2023-03-22T11:09:10;98516.72;;;13.41;100.00
10921;BME280;5513;50.580;8.818;2023-03-22T11:11:47;98539.41;;;13.45;100.00
10921;BME280;5513;50.580;8.818;2023-03-22T11:14:28;98519.47;;;13.61;100.00
10921;BME280;5513;50.580;8.818;2023-03-22T11:16:59;98497.63;;;13.67;100.00
10921;BME280;5513;50.580;8.818;2023-03-22T11:19:33;98492.84;;;14.01;100.00
10921;BME280;5513;50.580;8.818;2023-03-22T11:22:07;98491.00;;;13.92;100.00
10921;BME280;5513;50.580;8.818;2023-03-22T11:24:46;98488.72;;;13.87;100.00
10921;BME280;5513;50.580;8.818;2023-03-22T11:27:18;98496.41;;;14.21;100.00
10921;BME280;5513;50.580;8.818;2023-03-22T11:29:48;98495.91;;;13.96;100.00
10921;BME280;5513;50.580;8.818;2023-03-22T11:32:25;98496.97;;;14.34;100.00
10921;BME280;5513;50.580;8.818;2023-03-22T11:35:00;98490.44;;;14.48;100.00
10921;BME280;5513;50.580;8.818;2023-03-22T11:37:39;98486.50;;;14.71;100.00
10921;BME280;5513;50.580;8.818;2023-03-22T11:40:13;98469.66;;;14.71;100.00
10921;BME280;5513;50.580;8.818;2023-03-22T11:42:42;98504.16;;;14.53;100.00
10921;BME280;5513;50.580;8.818;2023-03-22T11:45:14;98476.44;;;13.96;100.00
10921;BME280;5513;50.580;8.818;2023-03-22T11:47:43;98475.16;;;14.50;100.00
10921;BME280;5513;50.580;8.818;2023-03-22T11:50:24;98467.50;;;15.03;100.00
10921;BME280;5513;50.580;8.818;2023-03-22T11:52:56;98488.78;;;15.32;100.00
10921;BME280;5513;50.580;8.818;2023-03-22T11:55:24;98458.13;;;15.09;100.00
10921;BME280;5513;50.580;8.818;2023-03-22T11:57:55;98466.50;;;15.14;100.00
10921;BME280;5513;50.580;8.818;2023-03-22T12:00:26;98467.75;;;15.29;100.00
10921;BME280;5513;50.580;8.818;2023-03-22T12:02:59;98453.00;;;15.72;100.00
10921;BME280;5513;50.580;8.818;2023-03-22T12:05:30;98457.41;;;15.63;100.00
10921;BME280;5513;50.580;8.818;2023-03-22T12:08:04;98450.78;;;15.58;100.00
10921;BME280;5513;50.580;8.818;2023-03-22T12:10:39;98466.81;;;15.58;100.00
10921;BME280;5513;50.580;8.818;2023-03-22T12:13:16;98458.53;;;15.61;100.00
10921;BME280;5513;50.580;8.818;2023-03-22T12:15:48;98475.63;;;15.21;100.00
10921;BME280;5513;50.580;8.818;2023-03-22T12:18:22;98459.72;;;15.39;100.00
10921;BME280;5513;50.580;8.818;2023-03-22T12:20:55;98447.47;;;15.46;100.00
10921;BME280;5513;50.580;8.818;2023-03-22T12:23:31;98469.16;;;15.70;100.00
10921;BME280;5513;50.580;8.818;2023-03-22T12:26:04;98446.63;;;15.45;100.00
10921;BME280;5513;50.580;8.818;2023-03-22T12:28:39;98449.78;;;15.59;100.00
10921;BME280;5513;50.580;8.818;2023-03-22T12:31:12;98439.16;;;15.86;100.00
10921;BME280;5513;50.580;8.818;2023-03-22T12:33:45;98442.47;;;15.70;100.00
10921;BME280;5513;50.580;8.818;2023-03-22T12:36:19;98442.22;;;15.64;100.00
10921;BME280;5513;50.580;8.818;2023-03-22T12:38:52;98445.97;;;15.71;100.00
10921;BME280;5513;50.580;8.818;2023-03-22T12:41:25;98445.19;;;15.61;100.00
10921;BME280;5513;50.580;8.818;2023-03-22T12:43:58;98441.88;;;15.77;100.00
10921;BME280;5513;50.580;8.818;2023-03-22T12:46:33;98422.91;;;15.97;100.00
10921;BME280;5513;50.580;8.818;2023-03-22T12:49:08;98431.50;;;16.37;100.00
10921;BME280;5513;50.580;8.818;2023-03-22T12:51:45;98413.63;;;16.55;100.00
10921;BME280;5513;50.580;8.818;2023-03-22T12:54:18;98417.81;;;16.57;100.00
10921;BME280;5513;50.580;8.818;2023-03-22T12:56:52;98418.38;;;16.25;100.00
10921;BME280;5513;50.580;8.818;2023-03-22T12:59:25;98413.97;;;16.70;100.00
10921;BME280;5513;50.580;8.818;2023-03-22T13:01:58;98409.59;;;16.51;97.56
10921;BME280;5513;50.580;8.818;2023-03-22T13:04:45;98416.22;;;16.82;91.18
10921;BME280;5513;50.580;8.818;2023-03-22T13:07:32;98404.84;;;16.45;90.58
10921;BME280;5513;50.580;8.818;2023-03-22T13:13:13;98398.59;;;16.72;90.86
10921;BME280;5513;50.580;8.818;2023-03-22T13:15:58;98394.56;;;16.94;92.43
10921;BME280;5513;50.580;8.818;2023-03-22T13:18:37;98393.91;;;16.74;95.06
10921;BME280;5513;50.580;8.818;2023-03-22T13:21:10;98387.03;;;16.89;90.14
10921;BME280;5513;50.580;8.818;2023-03-22T13:23:55;98379.44;;;17.10;85.87
10921;BME280;5513;50.580;8.818;2023-03-22T13:26:34;98373.78;;;17.56;86.45
10921;BME280;5513;50.580;8.818;2023-03-22T13:29:10;98390.88;;;17.21;83.55
10921;BME280;5513;50.580;8.818;2023-03-22T13:31:46;98380.84;;;17.57;80.32
10921;BME280;5513;50.580;8.818;2023-03-22T13:34:29;98373.06;;;17.71;79.55
10921;BME280;5513;50.580;8.818;2023-03-22T13:36:59;98369.97;;;17.58;75.78
10921;BME280;5513;50.580;8.818;2023-03-22T13:39:31;98366.84;;;17.03;74.55
10921;BME280;5513;50.580;8.818;2023-03-22T13:42:12;98368.13;;;17.25;76.61